sensor_id;sensor_type;location;lat;lon;timestamp;temperature;humidity
61841;DHT22;47773;53.174;6.614;2023-06-10T00:01:36;17.20;99.90
61841;DHT22;47773;53.174;6.614;2023-06-10T00:04:02;17.20;99.90
61841;DHT22;47773;53.174;6.614;2023-06-10T00:06:28;17.20;99.90
61841;DHT22;47773;53.174;6.614;2023-06-10T00:09:01;17.20;99.90
61841;DHT22;47773;53.174;6.614;2023-06-10T00:11:27;17.10;99.90
61841;DHT22;47773;53.174;6.614;2023-06-10T00:13:53;17.10;99.90
61841;DHT22;47773;53.174;6.614;2023-06-10T00:16:18;17.00;99.90
61841;DHT22;47773;53.174;6.614;2023-06-10T00:18:44;16.90;99.90
61841;DHT22;47773;53.174;6.614;2023-06-10T00:21:10;16.80;99.90
61841;DHT22;47773;53.174;6.614;2023-06-10T00:23:38;16.80;99.90
61841;DHT22;47773;53.174;6.614;2023-06-10T00:26:04;16.70;99.90
61841;DHT22;47773;53.174;6.614;2023-06-10T00:28:30;16.70;99.90
61841;DHT22;47773;53.174;6.614;2023-06-10T00:30:56;16.60;99.90
61841;DHT22;47773;53.174;6.614;2023-06-10T00:33:22;16.60;99.90
61841;DHT22;47773;53.174;6.614;2023-06-10T00:35:48;16.50;99.90
61841;DHT22;47773;53.174;6.614;2023-06-10T00:38:14;16.40;99.90
61841;DHT22;47773;53.174;6.614;2023-06-10T00:40:40;16.40;99.90
61841;DHT22;47773;53.174;6.614;2023-06-10T00:43:07;16.30;99.90
61841;DHT22;47773;53.174;6.614;2023-06-10T00:45:33;16.30;99.90
61841;DHT22;47773;53.174;6.614;2023-06-10T00:47:59;16.20;99.90
61841;DHT22;47773;53.174;6.614;2023-06-10T00:50:25;16.10;99.90
61841;DHT22;47773;53.174;6.614;2023-06-10T00:52:51;16.10;99.90
61841;DHT22;47773;53.174;6.614;2023-06-10T00:55:18;16.10;99.90
61841;DHT22;47773;53.174;6.614;2023-06-10T00:57:47;15.90;99.90
61841;DHT22;47773;53.174;6.614;2023-06-10T01:00:17;15.90;99.90
61841;DHT22;47773;53.174;6.614;2023-06-10T01:02:43;15.90;99.90
61841;DHT22;47773;53.174;6.614;2023-06-10T01:05:09;15.90;99.90
61841;DHT22;47773;53.174;6.614;2023-06-10T01:07:53;15.80;99.90
61841;DHT22;47773;53.174;6.614;2023-06-10T01:10:41;15.80;99.90
61841;DHT22;47773;53.174;6.614;2023-06-10T01:13:10;15.80;99.90
61841;DHT22;47773;53.174;6.614;2023-06-10T01:15:37;15.80;99.90
61841;DHT22;47773;53.174;6.614;2023-06-10T01:18:06;15.70;99.90
61841;DHT22;47773;53.174;6.614;2023-06-10T01:20:36;15.70;99.90
61841;DHT22;47773;53.174;6.614;2023-06-10T01:23:05;15.60;99.90
61841;DHT22;47773;53.174;6.614;2023-06-10T01:25:32;15.60;99.90
61841;DHT22;47773;53.174;6.614;2023-06-10T01:30:37;15.60;99.90
61841;DHT22;47773;53.174;6.614;2023-06-10T01:33:07;15.50;99.90
61841;DHT22;47773;53.174;6.614;2023-06-10T01:35:37;15.50;99.90
61841;DHT22;47773;53.174;6.614;2023-06-10T01:38:04;15.50;99.90
61841;DHT22;47773;53.174;6.614;2023-06-10T01:40:31;15.50;99.90
61841;DHT22;47773;53.174;6.614;2023-06-10T01:42:57;15.50;99.90
61841;DHT22;47773;53.174;6.614;2023-06-10T01:45:23;15.50;99.90
61841;DHT22;47773;53.174;6.614;2023-06-10T01:47:49;15.50;99.90
61841;DHT22;47773;53.174;6.614;2023-06-10T01:50:15;15.50;99.90
61841;DHT22;47773;53.174;6.614;2023-06-10T01:52:42;15.40;99.90
61841;DHT22;47773;53.174;6.614;2023-06-10T01:55:07;15.40;99.90
61841;DHT22;47773;53.174;6.614;2023-06-10T01:57:33;15.30;99.90
61841;DHT22;47773;53.174;6.614;2023-06-10T01:59:59;15.30;99.90
61841;DHT22;47773;53.174;6.614;2023-06-10T02:02:24;15.30;99.90
61841;DHT22;47773;53.174;6.614;2023-06-10T02:04:50;15.30;99.90
61841;DHT22;47773;53.174;6.614;2023-06-10T02:07:16;15.30;99.90
61841;DHT22;47773;53.174;6.614;2023-06-10T02:09:41;15.20;99.90
61841;DHT22;47773;53.174;6.614;2023-06-10T02:12:08;15.20;99.90
61841;DHT22;47773;53.174;6.614;2023-06-10T02:14:33;15.20;99.90
61841;DHT22;47773;53.174;6.614;2023-06-10T02:16:59;15.10;99.90
61841;DHT22;47773;53.174;6.614;2023-06-10T02:19:26;15.10;99.90
61841;DHT22;47773;53.174;6.614;2023-06-10T02:21:52;15.10;99.90
61841;DHT22;47773;53.174;6.614;2023-06-10T02:24:18;15.00;99.90
61841;DHT22;47773;53.174;6.614;2023-06-10T02:26:43;15.00;99.90
61841;DHT22;47773;53.174;6.614;2023-06-10T02:29:09;15.00;99.90
61841;DHT22;47773;53.174;6.614;2023-06-10T02:31:35;15.00;99.90
61841;DHT22;47773;53.174;6.614;2023-06-10T02:34:01;15.00;99.90
61841;DHT22;47773;53.174;6.614;2023-06-10T02:36:28;15.00;99.90
61841;DHT22;47773;53.174;6.614;2023-06-10T02:38:54;14.90;99.90
61841;DHT22;47773;53.174;6.614;2023-06-10T02:41:19;14.90;99.90
61841;DHT22;47773;53.174;6.614;2023-06-10T02:43:47;14.90;99.90
61841;DHT22;47773;53.174;6.614;2023-06-10T02:46:13;14.80;99.90
61841;DHT22;47773;53.174;6.614;2023-06-10T02:48:43;14.80;99.90
61841;DHT22;47773;53.174;6.614;2023-06-10T02:51:10;14.80;99.90
61841;DHT22;47773;53.174;6.614;2023-06-10T02:53:36;14.70;99.90
61841;DHT22;47773;53.174;6.614;2023-06-10T02:56:02;14.70;99.90
61841;DHT22;47773;53.174;6.614;2023-06-10T02:58:27;14.70;99.90
61841;DHT22;47773;53.174;6.614;2023-06-10T03:00:53;14.70;99.90
61841;DHT22;47773;53.174;6.614;2023-06-10T03:03:19;14.70;99.90
61841;DHT22;47773;53.174;6.614;2023-06-10T03:05:45;14.70;99.90
61841;DHT22;47773;53.174;6.614;2023-06-10T03:08:11;14.60;99.90
61841;DHT22;47773;53.174;6.614;2023-06-10T03:10:37;14.60;99.90
61841;DHT22;47773;53.174;6.614;2023-06-10T03:13:02;14.60;99.90
61841;DHT22;47773;53.174;6.614;2023-06-10T03:15:28;14.60;99.90
61841;DHT22;47773;53.174;6.614;2023-06-10T03:17:54;14.60;99.90
61841;DHT22;47773;53.174;6.614;2023-06-10T03:20:20;14.60;99.90
61841;DHT22;47773;53.174;6.614;2023-06-10T03:22:47;14.60;99.90
61841;DHT22;47773;53.174;6.614;2023-06-10T03:25:13;14.60;99.90
61841;DHT22;47773;53.174;6.614;2023-06-10T03:27:41;14.60;99.90
61841;DHT22;47773;53.174;6.614;2023-06-10T03:30:07;14.60;99.90
61841;DHT22;47773;53.174;6.614;2023-06-10T03:32:34;14.60;99.90
61841;DHT22;47773;53.174;6.614;2023-06-10T03:35:01;14.50;99.90
61841;DHT22;47773;53.174;6.614;2023-06-10T03:37:26;14.50;99.90
61841;DHT22;47773;53.174;6.614;2023-06-10T03:39:52;14.50;99.90
61841;DHT22;47773;53.174;6.614;2023-06-10T03:42:18;14.50;99.90
61841;DHT22;47773;53.174;6.614;2023-06-10T03:44:43;14.50;99.90
61841;DHT22;47773;53.174;6.614;2023-06-10T03:47:09;14.50;99.90
61841;DHT22;47773;53.174;6.614;2023-06-10T03:49:35;14.50;99.90
61841;DHT22;47773;53.174;6.614;2023-06-10T03:52:02;14.40;99.90
61841;DHT22;47773;53.174;6.614;2023-06-10T03:54:27;14.40;99.90
61841;DHT22;47773;53.174;6.614;2023-06-10T03:56:53;14.40;99.90
61841;DHT22;47773;53.174;6.614;2023-06-10T03:59:19;14.40;99.90
61841;DHT22;47773;53.174;6.614;2023-06-10T04:01:44;14.40;99.90
61841;DHT22;47773;53.174;6.614;2023-06-10T04:04:14;14.40;99.90
61841;DHT22;47773;53.174;6.614;2023-06-10T04:06:42;14.40;99.90
61841;DHT22;47773;53.174;6.614;2023-06-10T04:09:09;14.50;99.90
61841;DHT22;47773;53.174;6.614;2023-06-10T04:11:35;14.50;99.90
61841;DHT22;47773;53.174;6.614;2023-06-10T04:14:01;14.50;99.90
61841;DHT22;47773;53.174;6.614;2023-06-10T04:16:27;14.50;99.90
61841;DHT22;47773;53.174;6.614;2023-06-10T04:18:53;14.60;99.90
61841;DHT22;47773;53.174;6.614;2023-06-10T04:21:19;14.70;99.90
61841;DHT22;47773;53.174;6.614;2023-06-10T04:23:44;15.00;99.90
61841;DHT22;47773;53.174;6.614;2023-06-10T04:26:10;15.20;99.90
61841;DHT22;47773;53.174;6.614;2023-06-10T04:28:38;15.40;99.90
61841;DHT22;47773;53.174;6.614;2023-06-10T04:31:03;15.50;99.90
61841;DHT22;47773;53.174;6.614;2023-06-10T04:33:30;15.70;99.90
61841;DHT22;47773;53.174;6.614;2023-06-10T04:35:56;15.80;99.90
61841;DHT22;47773;53.174;6.614;2023-06-10T04:38:22;15.80;99.90
61841;DHT22;47773;53.174;6.614;2023-06-10T04:40:48;15.80;99.90
61841;DHT22;47773;53.174;6.614;2023-06-10T04:43:14;15.70;99.90
61841;DHT22;47773;53.174;6.614;2023-06-10T04:45:40;15.60;99.90
61841;DHT22;47773;53.174;6.614;2023-06-10T04:48:05;15.60;99.90
61841;DHT22;47773;53.174;6.614;2023-06-10T04:50:32;15.60;99.90
61841;DHT22;47773;53.174;6.614;2023-06-10T04:52:58;15.50;99.90
61841;DHT22;47773;53.174;6.614;2023-06-10T04:55:24;15.50;99.90
61841;DHT22;47773;53.174;6.614;2023-06-10T04:57:51;15.40;99.90
61841;DHT22;47773;53.174;6.614;2023-06-10T05:00:17;15.40;99.90
61841;DHT22;47773;53.174;6.614;2023-06-10T05:02:42;15.40;99.90
61841;DHT22;47773;53.174;6.614;2023-06-10T05:05:08;15.40;99.90
61841;DHT22;47773;53.174;6.614;2023-06-10T05:07:34;15.40;99.90
61841;DHT22;47773;53.174;6.614;2023-06-10T05:10:00;15.40;99.90
61841;DHT22;47773;53.174;6.614;2023-06-10T05:12:26;15.30;99.90
61841;DHT22;47773;53.174;6.614;2023-06-10T05:14:51;15.30;99.90
61841;DHT22;47773;53.174;6.614;2023-06-10T05:17:17;15.30;99.90
61841;DHT22;47773;53.174;6.614;2023-06-10T05:19:43;15.30;99.90
61841;DHT22;47773;53.174;6.614;2023-06-10T05:22:09;15.30;99.90
61841;DHT22;47773;53.174;6.614;2023-06-10T05:24:35;15.30;99.90
61841;DHT22;47773;53.174;6.614;2023-06-10T05:27:01;15.40;99.90
61841;DHT22;47773;53.174;6.614;2023-06-10T05:29:28;15.40;99.90
61841;DHT22;47773;53.174;6.614;2023-06-10T05:31:53;15.40;99.90
61841;DHT22;47773;53.174;6.614;2023-06-10T05:34:22;15.40;99.90
61841;DHT22;47773;53.174;6.614;2023-06-10T05:36:48;15.50;99.90
61841;DHT22;47773;53.174;6.614;2023-06-10T05:39:13;15.60;99.90
61841;DHT22;47773;53.174;6.614;2023-06-10T05:41:39;15.60;99.90
61841;DHT22;47773;53.174;6.614;2023-06-10T05:44:05;15.60;99.90
61841;DHT22;47773;53.174;6.614;2023-06-10T05:46:30;15.70;99.90
61841;DHT22;47773;53.174;6.614;2023-06-10T05:48:56;15.70;99.90
61841;DHT22;47773;53.174;6.614;2023-06-10T05:51:21;15.70;99.90
61841;DHT22;47773;53.174;6.614;2023-06-10T05:53:47;15.70;99.90
61841;DHT22;47773;53.174;6.614;2023-06-10T05:56:14;15.70;99.90
61841;DHT22;47773;53.174;6.614;2023-06-10T05:58:40;15.70;99.90
61841;DHT22;47773;53.174;6.614;2023-06-10T06:01:05;15.70;99.90
61841;DHT22;47773;53.174;6.614;2023-06-10T06:03:31;15.80;99.90
61841;DHT22;47773;53.174;6.614;2023-06-10T06:05:57;15.80;99.90
61841;DHT22;47773;53.174;6.614;2023-06-10T06:08:22;15.90;99.90
61841;DHT22;47773;53.174;6.614;2023-06-10T06:10:48;15.90;99.90
61841;DHT22;47773;53.174;6.614;2023-06-10T06:13:14;15.90;99.90
61841;DHT22;47773;53.174;6.614;2023-06-10T06:15:39;16.00;99.90
61841;DHT22;47773;53.174;6.614;2023-06-10T06:18:05;16.00;99.90
61841;DHT22;47773;53.174;6.614;2023-06-10T06:20:31;16.10;99.90
61841;DHT22;47773;53.174;6.614;2023-06-10T06:22:56;16.10;99.90
61841;DHT22;47773;53.174;6.614;2023-06-10T06:25:22;16.20;99.90
61841;DHT22;47773;53.174;6.614;2023-06-10T06:27:48;16.20;99.90
61841;DHT22;47773;53.174;6.614;2023-06-10T06:30:14;16.30;99.90
61841;DHT22;47773;53.174;6.614;2023-06-10T06:32:40;16.40;99.90
61841;DHT22;47773;53.174;6.614;2023-06-10T06:35:06;16.50;99.90
61841;DHT22;47773;53.174;6.614;2023-06-10T06:37:33;16.60;99.90
61841;DHT22;47773;53.174;6.614;2023-06-10T06:39:59;16.70;99.90
61841;DHT22;47773;53.174;6.614;2023-06-10T06:42:25;16.80;99.90
61841;DHT22;47773;53.174;6.614;2023-06-10T06:44:50;16.90;99.90
61841;DHT22;47773;53.174;6.614;2023-06-10T06:47:16;17.10;99.90
61841;DHT22;47773;53.174;6.614;2023-06-10T06:49:46;17.20;99.90
61841;DHT22;47773;53.174;6.614;2023-06-10T06:52:12;17.30;99.90
61841;DHT22;47773;53.174;6.614;2023-06-10T06:54:37;17.50;99.90
61841;DHT22;47773;53.174;6.614;2023-06-10T06:57:03;17.60;99.90
61841;DHT22;47773;53.174;6.614;2023-06-10T06:59:29;17.70;99.90
61841;DHT22;47773;53.174;6.614;2023-06-10T07:01:55;17.80;99.90
61841;DHT22;47773;53.174;6.614;2023-06-10T07:04:20;17.90;99.90
61841;DHT22;47773;53.174;6.614;2023-06-10T07:06:48;18.00;99.90
61841;DHT22;47773;53.174;6.614;2023-06-10T07:09:13;18.10;99.90
61841;DHT22;47773;53.174;6.614;2023-06-10T07:11:39;18.30;99.90
61841;DHT22;47773;53.174;6.614;2023-06-10T07:14:06;18.40;99.90
61841;DHT22;47773;53.174;6.614;2023-06-10T07:16:31;18.60;99.90
61841;DHT22;47773;53.174;6.614;2023-06-10T07:18:57;18.80;99.90
61841;DHT22;47773;53.174;6.614;2023-06-10T07:21:22;18.90;99.90
61841;DHT22;47773;53.174;6.614;2023-06-10T07:23:49;19.10;99.90
61841;DHT22;47773;53.174;6.614;2023-06-10T07:26:14;19.20;99.90
61841;DHT22;47773;53.174;6.614;2023-06-10T07:28:41;19.10;99.90
61841;DHT22;47773;53.174;6.614;2023-06-10T07:31:07;19.30;99.90
61841;DHT22;47773;53.174;6.614;2023-06-10T07:33:33;19.40;99.90
61841;DHT22;47773;53.174;6.614;2023-06-10T07:35:59;19.40;99.90
61841;DHT22;47773;53.174;6.614;2023-06-10T07:38:25;19.40;99.90
61841;DHT22;47773;53.174;6.614;2023-06-10T07:40:51;19.50;99.90
61841;DHT22;47773;53.174;6.614;2023-06-10T07:43:18;19.70;99.90
61841;DHT22;47773;53.174;6.614;2023-06-10T07:45:44;19.90;99.90
61841;DHT22;47773;53.174;6.614;2023-06-10T07:48:10;20.10;99.90
61841;DHT22;47773;53.174;6.614;2023-06-10T07:50:36;20.10;99.90
61841;DHT22;47773;53.174;6.614;2023-06-10T07:53:02;20.40;99.90
61841;DHT22;47773;53.174;6.614;2023-06-10T07:55:28;20.40;99.90
61841;DHT22;47773;53.174;6.614;2023-06-10T07:57:54;20.60;99.90
61841;DHT22;47773;53.174;6.614;2023-06-10T08:00:20;20.70;99.90
61841;DHT22;47773;53.174;6.614;2023-06-10T08:02:47;20.80;99.90
61841;DHT22;47773;53.174;6.614;2023-06-10T08:05:12;21.00;99.90
61841;DHT22;47773;53.174;6.614;2023-06-10T08:07:41;21.10;99.90
61841;DHT22;47773;53.174;6.614;2023-06-10T08:10:07;21.30;99.90
61841;DHT22;47773;53.174;6.614;2023-06-10T08:12:34;21.60;99.90
61841;DHT22;47773;53.174;6.614;2023-06-10T08:15:00;21.90;99.90
61841;DHT22;47773;53.174;6.614;2023-06-10T08:17:26;22.20;99.90
61841;DHT22;47773;53.174;6.614;2023-06-10T08:19:52;22.30;99.90
61841;DHT22;47773;53.174;6.614;2023-06-10T08:22:17;22.30;99.90
61841;DHT22;47773;53.174;6.614;2023-06-10T08:24:43;22.30;99.90
61841;DHT22;47773;53.174;6.614;2023-06-10T08:27:09;22.40;99.90
61841;DHT22;47773;53.174;6.614;2023-06-10T08:29:36;22.40;99.90
61841;DHT22;47773;53.174;6.614;2023-06-10T08:32:02;22.50;99.90
61841;DHT22;47773;53.174;6.614;2023-06-10T08:34:28;22.80;99.90
61841;DHT22;47773;53.174;6.614;2023-06-10T08:36:54;23.10;99.90
61841;DHT22;47773;53.174;6.614;2023-06-10T08:39:21;23.40;99.90
61841;DHT22;47773;53.174;6.614;2023-06-10T08:44:46;23.50;98.90
61841;DHT22;47773;53.174;6.614;2023-06-10T08:47:16;23.80;98.90
61841;DHT22;47773;53.174;6.614;2023-06-10T08:49:46;23.90;97.60
61841;DHT22;47773;53.174;6.614;2023-06-10T08:52:16;24.10;97.30
61841;DHT22;47773;53.174;6.614;2023-06-10T08:54:54;24.10;97.00
61841;DHT22;47773;53.174;6.614;2023-06-10T08:57:22;24.10;96.50
61841;DHT22;47773;53.174;6.614;2023-06-10T08:59:48;24.20;96.30
61841;DHT22;47773;53.174;6.614;2023-06-10T09:02:15;24.20;95.90
61841;DHT22;47773;53.174;6.614;2023-06-10T09:04:44;24.40;95.70
61841;DHT22;47773;53.174;6.614;2023-06-10T09:07:12;24.60;94.70
61841;DHT22;47773;53.174;6.614;2023-06-10T09:09:42;24.80;94.40
61841;DHT22;47773;53.174;6.614;2023-06-10T09:12:08;24.80;93.80
61841;DHT22;47773;53.174;6.614;2023-06-10T09:14:35;25.10;93.40
61841;DHT22;47773;53.174;6.614;2023-06-10T09:17:01;25.30;93.20
61841;DHT22;47773;53.174;6.614;2023-06-10T09:19:28;25.40;92.90
61841;DHT22;47773;53.174;6.614;2023-06-10T09:21:54;25.50;91.80
61841;DHT22;47773;53.174;6.614;2023-06-10T09:24:24;25.40;91.90
61841;DHT22;47773;53.174;6.614;2023-06-10T09:26:49;25.50;91.50
61841;DHT22;47773;53.174;6.614;2023-06-10T09:29:17;25.70;91.30
61841;DHT22;47773;53.174;6.614;2023-06-10T09:31:43;25.60;90.50
61841;DHT22;47773;53.174;6.614;2023-06-10T09:34:10;25.50;90.10
61841;DHT22;47773;53.174;6.614;2023-06-10T09:36:37;25.50;89.90
61841;DHT22;47773;53.174;6.614;2023-06-10T09:39:03;25.60;89.10
61841;DHT22;47773;53.174;6.614;2023-06-10T09:41:39;25.70;88.60
61841;DHT22;47773;53.174;6.614;2023-06-10T09:44:15;25.80;87.20
61841;DHT22;47773;53.174;6.614;2023-06-10T09:46:42;25.90;86.30
61841;DHT22;47773;53.174;6.614;2023-06-10T09:49:10;25.90;86.30
61841;DHT22;47773;53.174;6.614;2023-06-10T09:51:36;26.00;85.70
61841;DHT22;47773;53.174;6.614;2023-06-10T09:54:05;26.00;85.30
61841;DHT22;47773;53.174;6.614;2023-06-10T09:56:36;26.20;84.00
61841;DHT22;47773;53.174;6.614;2023-06-10T09:59:03;26.10;83.50
61841;DHT22;47773;53.174;6.614;2023-06-10T10:01:32;26.10;83.90
61841;DHT22;47773;53.174;6.614;2023-06-10T10:03:59;26.00;83.70
61841;DHT22;47773;53.174;6.614;2023-06-10T10:06:25;26.00;83.30
61841;DHT22;47773;53.174;6.614;2023-06-10T10:08:52;26.10;82.80
61841;DHT22;47773;53.174;6.614;2023-06-10T10:11:19;26.20;82.60
61841;DHT22;47773;53.174;6.614;2023-06-10T10:13:48;26.40;81.60
61841;DHT22;47773;53.174;6.614;2023-06-10T10:16:20;26.60;81.10
61841;DHT22;47773;53.174;6.614;2023-06-10T10:18:56;26.60;79.80
61841;DHT22;47773;53.174;6.614;2023-06-10T10:21:27;26.70;80.10
61841;DHT22;47773;53.174;6.614;2023-06-10T10:24:12;26.90;78.90
61841;DHT22;47773;53.174;6.614;2023-06-10T10:26:42;27.20;78.10
61841;DHT22;47773;53.174;6.614;2023-06-10T10:29:22;27.30;78.10
61841;DHT22;47773;53.174;6.614;2023-06-10T10:31:51;27.20;77.00
61841;DHT22;47773;53.174;6.614;2023-06-10T10:34:24;27.20;75.30
61841;DHT22;47773;53.174;6.614;2023-06-10T10:36:54;27.00;76.50
61841;DHT22;47773;53.174;6.614;2023-06-10T10:39:20;27.10;76.90
61841;DHT22;47773;53.174;6.614;2023-06-10T10:41:46;27.10;76.70
61841;DHT22;47773;53.174;6.614;2023-06-10T10:44:13;27.10;76.30
61841;DHT22;47773;53.174;6.614;2023-06-10T10:46:43;27.20;75.50
61841;DHT22;47773;53.174;6.614;2023-06-10T10:49:11;27.40;75.10
61841;DHT22;47773;53.174;6.614;2023-06-10T10:51:37;27.50;74.70
61841;DHT22;47773;53.174;6.614;2023-06-10T10:54:28;27.60;74.70
61841;DHT22;47773;53.174;6.614;2023-06-10T10:57:13;27.70;74.30
61841;DHT22;47773;53.174;6.614;2023-06-10T11:02:16;27.60;70.10
61841;DHT22;47773;53.174;6.614;2023-06-10T11:04:49;27.60;72.50
61841;DHT22;47773;53.174;6.614;2023-06-10T11:07:14;27.60;72.30
61841;DHT22;47773;53.174;6.614;2023-06-10T11:10:11;27.50;69.20
61841;DHT22;47773;53.174;6.614;2023-06-10T11:12:53;27.60;71.00
61841;DHT22;47773;53.174;6.614;2023-06-10T11:15:19;27.70;68.90
61841;DHT22;47773;53.174;6.614;2023-06-10T11:26:13;27.90;69.50
61841;DHT22;47773;53.174;6.614;2023-06-10T11:28:39;27.90;69.20
61841;DHT22;47773;53.174;6.614;2023-06-10T11:31:05;27.90;68.90
61841;DHT22;47773;53.174;6.614;2023-06-10T11:33:31;27.90;69.20
61841;DHT22;47773;53.174;6.614;2023-06-10T11:35:57;27.90;69.10
61841;DHT22;47773;53.174;6.614;2023-06-10T11:38:24;27.90;69.70
61841;DHT22;47773;53.174;6.614;2023-06-10T11:40:50;27.90;68.30
61841;DHT22;47773;53.174;6.614;2023-06-10T11:43:17;27.90;67.80
61841;DHT22;47773;53.174;6.614;2023-06-10T11:45:43;28.10;68.30
61841;DHT22;47773;53.174;6.614;2023-06-10T11:48:10;28.10;67.90
61841;DHT22;47773;53.174;6.614;2023-06-10T11:50:36;28.30;67.30
61841;DHT22;47773;53.174;6.614;2023-06-10T11:53:02;28.20;66.10
61841;DHT22;47773;53.174;6.614;2023-06-10T11:55:48;28.20;65.30
61841;DHT22;47773;53.174;6.614;2023-06-10T11:58:19;28.20;63.20
61841;DHT22;47773;53.174;6.614;2023-06-10T12:03:14;28.20;64.50
61841;DHT22;47773;53.174;6.614;2023-06-10T12:05:40;28.20;64.80
61841;DHT22;47773;53.174;6.614;2023-06-10T12:08:09;28.10;65.80
61841;DHT22;47773;53.174;6.614;2023-06-10T12:10:42;28.20;65.90
61841;DHT22;47773;53.174;6.614;2023-06-10T12:13:11;27.90;65.20
61841;DHT22;47773;53.174;6.614;2023-06-10T12:15:37;27.90;66.50
61841;DHT22;47773;53.174;6.614;2023-06-10T12:18:03;27.90;66.00
61841;DHT22;47773;53.174;6.614;2023-06-10T12:20:31;28.10;65.70
61841;DHT22;47773;53.174;6.614;2023-06-10T12:23:07;28.10;65.20
61841;DHT22;47773;53.174;6.614;2023-06-10T12:25:33;28.10;64.70
61841;DHT22;47773;53.174;6.614;2023-06-10T12:27:59;27.90;65.40
61841;DHT22;47773;53.174;6.614;2023-06-10T12:30:26;27.90;64.90
61841;DHT22;47773;53.174;6.614;2023-06-10T12:32:52;27.80;64.50
61841;DHT22;47773;53.174;6.614;2023-06-10T12:35:20;27.80;64.90
61841;DHT22;47773;53.174;6.614;2023-06-10T12:38:00;28.00;65.40
61841;DHT22;47773;53.174;6.614;2023-06-10T12:40:31;28.00;64.80
61841;DHT22;47773;53.174;6.614;2023-06-10T12:42:58;28.00;64.60
61841;DHT22;47773;53.174;6.614;2023-06-10T12:48:06;28.10;65.30
61841;DHT22;47773;53.174;6.614;2023-06-10T12:50:35;28.10;64.10
61841;DHT22;47773;53.174;6.614;2023-06-10T12:53:03;28.00;64.30
61841;DHT22;47773;53.174;6.614;2023-06-10T12:55:29;28.10;64.00
61841;DHT22;47773;53.174;6.614;2023-06-10T12:57:54;28.10;63.90
61841;DHT22;47773;53.174;6.614;2023-06-10T13:00:21;28.00;64.20
61841;DHT22;47773;53.174;6.614;2023-06-10T13:02:48;28.00;64.30
61841;DHT22;47773;53.174;6.614;2023-06-10T13:05:16;28.10;64.70
61841;DHT22;47773;53.174;6.614;2023-06-10T13:07:42;28.10;64.90
61841;DHT22;47773;53.174;6.614;2023-06-10T13:10:08;28.00;64.80
61841;DHT22;47773;53.174;6.614;2023-06-10T13:12:33;28.00;65.50
61841;DHT22;47773;53.174;6.614;2023-06-10T13:14:59;27.80;65.70
61841;DHT22;47773;53.174;6.614;2023-06-10T13:17:25;27.70;66.00
61841;DHT22;47773;53.174;6.614;2023-06-10T13:19:51;27.50;66.10
61841;DHT22;47773;53.174;6.614;2023-06-10T13:22:17;27.40;65.80
61841;DHT22;47773;53.174;6.614;2023-06-10T13:24:44;27.30;65.80
61841;DHT22;47773;53.174;6.614;2023-06-10T13:27:10;27.30;65.70
61841;DHT22;47773;53.174;6.614;2023-06-10T13:29:36;27.30;65.80
61841;DHT22;47773;53.174;6.614;2023-06-10T13:32:01;27.20;66.60
61841;DHT22;47773;53.174;6.614;2023-06-10T13:34:27;27.30;67.70
61841;DHT22;47773;53.174;6.614;2023-06-10T13:36:53;27.30;66.50
61841;DHT22;47773;53.174;6.614;2023-06-10T13:39:19;27.30;66.90
61841;DHT22;47773;53.174;6.614;2023-06-10T13:41:45;27.30;65.80
61841;DHT22;47773;53.174;6.614;2023-06-10T13:44:10;27.20;64.30
61841;DHT22;47773;53.174;6.614;2023-06-10T13:46:36;27.20;63.70
61841;DHT22;47773;53.174;6.614;2023-06-10T13:49:02;27.20;62.00
61841;DHT22;47773;53.174;6.614;2023-06-10T13:51:27;27.30;62.30
61841;DHT22;47773;53.174;6.614;2023-06-10T13:53:53;27.30;61.80
61841;DHT22;47773;53.174;6.614;2023-06-10T13:56:19;27.20;60.80
61841;DHT22;47773;53.174;6.614;2023-06-10T13:58:44;27.20;59.40
61841;DHT22;47773;53.174;6.614;2023-06-10T14:01:10;27.30;59.50
61841;DHT22;47773;53.174;6.614;2023-06-10T14:03:36;27.30;59.70
61841;DHT22;47773;53.174;6.614;2023-06-10T14:06:02;27.30;59.60
61841;DHT22;47773;53.174;6.614;2023-06-10T14:08:28;27.30;59.30
61841;DHT22;47773;53.174;6.614;2023-06-10T14:10:54;27.30;59.50
61841;DHT22;47773;53.174;6.614;2023-06-10T14:13:20;27.20;59.80
61841;DHT22;47773;53.174;6.614;2023-06-10T14:15:45;27.20;60.10
61841;DHT22;47773;53.174;6.614;2023-06-10T14:18:12;27.20;60.50
61841;DHT22;47773;53.174;6.614;2023-06-10T14:20:37;27.30;60.70
61841;DHT22;47773;53.174;6.614;2023-06-10T14:23:03;27.20;60.60
61841;DHT22;47773;53.174;6.614;2023-06-10T14:25:29;27.20;61.30
61841;DHT22;47773;53.174;6.614;2023-06-10T14:27:54;27.10;61.90
61841;DHT22;47773;53.174;6.614;2023-06-10T14:30:20;27.00;62.20
61841;DHT22;47773;53.174;6.614;2023-06-10T14:32:46;26.90;62.90
61841;DHT22;47773;53.174;6.614;2023-06-10T14:35:12;26.80;63.30
61841;DHT22;47773;53.174;6.614;2023-06-10T14:37:37;26.80;63.40
61841;DHT22;47773;53.174;6.614;2023-06-10T14:40:07;26.90;64.00
61841;DHT22;47773;53.174;6.614;2023-06-10T14:42:32;26.90;64.30
61841;DHT22;47773;53.174;6.614;2023-06-10T14:44:58;26.90;64.50
61841;DHT22;47773;53.174;6.614;2023-06-10T14:47:24;26.70;64.70
61841;DHT22;47773;53.174;6.614;2023-06-10T14:49:50;26.80;65.00
61841;DHT22;47773;53.174;6.614;2023-06-10T14:52:16;26.70;64.50
61841;DHT22;47773;53.174;6.614;2023-06-10T14:54:42;26.60;64.90
61841;DHT22;47773;53.174;6.614;2023-06-10T14:57:07;26.60;65.30
61841;DHT22;47773;53.174;6.614;2023-06-10T14:59:33;26.70;65.50
61841;DHT22;47773;53.174;6.614;2023-06-10T15:02:00;26.70;64.90
61841;DHT22;47773;53.174;6.614;2023-06-10T15:04:27;26.70;64.60
61841;DHT22;47773;53.174;6.614;2023-06-10T15:06:52;26.70;64.70
61841;DHT22;47773;53.174;6.614;2023-06-10T15:09:18;26.80;65.40
61841;DHT22;47773;53.174;6.614;2023-06-10T15:11:44;26.80;64.80
61841;DHT22;47773;53.174;6.614;2023-06-10T15:14:09;26.70;64.00
61841;DHT22;47773;53.174;6.614;2023-06-10T15:16:35;26.60;63.20
61841;DHT22;47773;53.174;6.614;2023-06-10T15:19:01;26.60;63.40
61841;DHT22;47773;53.174;6.614;2023-06-10T15:21:26;26.50;63.70
61841;DHT22;47773;53.174;6.614;2023-06-10T15:23:52;26.50;64.20
61841;DHT22;47773;53.174;6.614;2023-06-10T15:26:18;26.50;64.30
61841;DHT22;47773;53.174;6.614;2023-06-10T15:28:44;26.50;64.40
61841;DHT22;47773;53.174;6.614;2023-06-10T15:31:10;26.50;64.50
61841;DHT22;47773;53.174;6.614;2023-06-10T15:33:36;26.50;64.10
61841;DHT22;47773;53.174;6.614;2023-06-10T15:36:01;26.50;64.00
61841;DHT22;47773;53.174;6.614;2023-06-10T15:38:27;26.60;64.00
61841;DHT22;47773;53.174;6.614;2023-06-10T15:40:52;26.60;63.90
61841;DHT22;47773;53.174;6.614;2023-06-10T15:43:19;26.50;63.80
61841;DHT22;47773;53.174;6.614;2023-06-10T15:45:45;26.50;63.60
61841;DHT22;47773;53.174;6.614;2023-06-10T15:48:10;26.50;63.80
61841;DHT22;47773;53.174;6.614;2023-06-10T15:50:36;26.50;63.70